Time;durP1;ratioP1;P1;durP2;ratioP2;P2;SDS_P1;SDS_P2;PMS_P1;PMS_P2;Temp;Humidity;BMP_temperature;BMP_pressure;BME280_temperature;BME280_humidity;BME280_pressure;Samples;Min_cycle;Max_cycle;Signal;HPM_P1;HPM_P2
2022/07/30 00:00:26;;;;;;;6.35;4.60;;;;;;;22.57;66.64;98429.47;4484975;32;20201;-69
2022/07/30 00:02:53;;;;;;;5.78;4.57;;;;;;;22.56;66.79;98431.34;4485019;31;20120;-69
2022/07/30 00:05:21;;;;;;;8.85;5.10;;;;;;;22.53;66.99;98430.97;4484786;32;20161;-69
2022/07/30 00:07:48;;;;;;;7.22;5.55;;;;;;;22.49;67.31;98439.41;4483702;32;20114;-69
2022/07/30 00:10:15;;;;;;;5.70;5.07;;;;;;;22.41;67.75;98437.06;4484897;32;20119;-69
2022/07/30 00:12:42;;;;;;;7.53;4.87;;;;;;;22.41;67.88;98433.56;4484850;31;20521;-69
2022/07/30 00:15:10;;;;;;;6.90;5.00;;;;;;;22.38;68.08;98445.50;4484682;31;20081;-69
2022/07/30 00:17:37;;;;;;;7.45;4.95;;;;;;;22.33;68.41;98440.00;4484670;31;20088;-69
2022/07/30 00:20:06;;;;;;;7.20;4.85;;;;;;;22.27;68.66;98435.50;4484763;32;20136;-69
2022/07/30 00:22:33;;;;;;;8.13;4.93;;;;;;;22.25;68.85;98435.72;4484732;31;20096;-69
2022/07/30 00:25:01;;;;;;;7.20;4.62;;;;;;;22.21;69.09;98431.91;4484529;32;20100;-69
2022/07/30 00:27:30;;;;;;;6.55;5.10;;;;;;;22.22;69.14;98425.50;4484379;31;20164;-69
2022/07/30 00:29:57;;;;;;;6.35;4.68;;;;;;;22.10;69.75;98428.06;4484690;31;20080;-69
2022/07/30 00:32:24;;;;;;;6.72;5.55;;;;;;;22.02;70.19;98428.38;4483517;31;20089;-69
2022/07/30 00:34:51;;;;;;;9.38;4.57;;;;;;;21.97;70.54;98431.69;4484724;31;20495;-69
2022/07/30 00:37:18;;;;;;;8.82;5.30;;;;;;;21.91;70.92;98423.78;4484279;32;20123;-69
2022/07/30 00:39:46;;;;;;;7.43;5.00;;;;;;;21.89;71.04;98420.50;4484663;32;20116;-69
2022/07/30 00:42:13;;;;;;;10.43;5.57;;;;;;;21.87;71.15;98419.91;4484495;32;20399;-69
2022/07/30 00:44:40;;;;;;;7.50;4.60;;;;;;;21.85;71.23;98419.28;4484505;31;20807;-69
2022/07/30 00:47:08;;;;;;;9.85;5.40;;;;;;;21.90;71.03;98419.47;4484397;32;20100;-68
2022/07/30 00:49:35;;;;;;;5.37;4.68;;;;;;;21.85;71.23;98413.97;4484481;31;20102;-68
2022/07/30 00:52:02;;;;;;;8.60;5.40;;;;;;;21.85;71.20;98416.63;4484408;32;20096;-69
2022/07/30 00:54:29;;;;;;;5.90;4.80;;;;;;;21.83;71.31;98416.03;4484303;32;20450;-69
2022/07/30 00:56:56;;;;;;;6.07;4.75;;;;;;;21.75;71.56;98420.59;4484068;31;20088;-69
2022/07/30 00:59:27;;;;;;;9.55;5.10;;;;;;;21.91;70.91;98421.09;4484305;31;20095;-69
2022/07/30 01:01:54;;;;;;;5.78;4.70;;;;;;;21.89;70.95;98409.81;4484155;31;20104;-68
2022/07/30 01:04:22;;;;;;;11.48;5.40;;;;;;;21.89;70.84;98418.66;4484260;32;20446;-69
2022/07/30 01:06:49;;;;;;;5.97;4.62;;;;;;;21.81;71.16;98418.91;4483966;32;20123;-69
2022/07/30 01:09:16;;;;;;;7.28;6.40;;;;;;;21.80;71.20;98417.28;4484344;32;20092;-69
2022/07/30 01:11:43;;;;;;;6.28;4.97;;;;;;;21.84;71.02;98423.00;4483996;32;20093;-69
2022/07/30 01:14:11;;;;;;;8.13;4.97;;;;;;;21.86;70.90;98420.94;4484406;31;20821;-69
2022/07/30 01:16:41;;;;;;;6.55;4.80;;;;;;;21.86;70.92;98421.75;4484200;31;20093;-69
2022/07/30 01:22:08;;;;;;;7.30;4.90;;;;;;;21.86;70.99;98418.25;4483177;32;20118;-69
2022/07/30 01:24:39;;;;;;;9.20;5.07;;;;;;;21.88;71.01;98421.53;4482508;32;20566;-69
2022/07/30 01:27:07;;;;;;;6.72;5.00;;;;;;;21.89;71.12;98417.81;4479839;32;79599;-68
2022/07/30 01:29:35;;;;;;;6.32;4.87;;;;;;;21.80;71.52;98418.13;4482965;32;20088;-69
2022/07/30 01:32:04;;;;;;;8.60;4.90;;;;;;;21.77;71.80;98420.38;4483963;31;20169;-68
2022/07/30 01:34:33;;;;;;;8.35;5.55;;;;;;;21.77;71.90;98420.38;4482818;32;20108;-69
2022/07/30 01:37:01;;;;;;;6.90;5.00;;;;;;;21.75;72.01;98419.78;4482241;32;20514;-69
2022/07/30 01:39:29;;;;;;;6.30;4.95;;;;;;;21.67;72.50;98420.09;4482416;32;20590;-69
2022/07/30 01:41:57;;;;;;;7.50;5.18;;;;;;;21.59;72.87;98421.97;4483697;31;20105;-69
2022/07/30 01:44:25;;;;;;;7.82;5.40;;;;;;;21.56;73.20;98424.25;4483873;32;20126;-69
2022/07/30 01:46:54;;;;;;;6.18;5.03;;;;;;;21.51;73.48;98416.91;4486183;31;20155;-69
2022/07/30 01:49:23;;;;;;;10.05;5.15;;;;;;;21.45;73.79;98423.91;4484853;32;20167;-69
2022/07/30 01:51:51;;;;;;;7.22;4.97;;;;;;;21.49;73.78;98413.63;4484616;32;20104;-69
2022/07/30 01:54:20;;;;;;;7.47;5.45;;;;;;;21.49;73.75;98415.47;4485964;31;20101;-69
2022/07/30 01:56:48;;;;;;;6.47;5.30;;;;;;;21.39;74.28;98402.63;4484217;32;20088;-68
2022/07/30 01:59:17;;;;;;;7.43;4.90;;;;;;;21.42;74.25;98402.19;4484501;32;20156;-69
2022/07/30 02:01:46;;;;;;;6.55;4.80;;;;;;;21.38;74.55;98393.00;4470662;32;20385;-68
2022/07/30 02:04:15;;;;;;;6.62;5.03;;;;;;;21.39;74.54;98395.47;4470071;32;20152;-69
2022/07/30 02:06:46;;;;;;;7.95;5.68;;;;;;;21.41;74.49;98393.37;4483003;32;20119;-69
2022/07/30 02:09:18;;;;;;;7.53;4.85;;;;;;;21.37;74.83;98384.19;4484627;32;20139;-69
2022/07/30 02:14:42;;;;;;;6.78;5.62;;;;;;;21.39;74.94;98378.63;4484877;32;20593;-69
2022/07/30 02:17:16;;;;;;;7.97;4.82;;;;;;;21.37;75.13;98376.19;4484657;32;20088;-69
2022/07/30 02:19:48;;;;;;;7.12;5.78;;;;;;;21.35;75.32;98374.78;4484421;32;20080;-69
2022/07/30 02:22:16;;;;;;;6.47;5.18;;;;;;;21.34;75.48;98368.63;4485596;31;20115;-68
2022/07/30 02:24:46;;;;;;;6.35;5.12;;;;;;;21.26;75.92;98361.72;4485636;31;20153;-69
2022/07/30 02:27:28;;;;;;;6.18;4.95;;;;;;;21.32;75.87;98351.22;4485391;32;20104;-68
2022/07/30 02:29:58;;;;;;;7.45;5.53;;;;;;;21.31;75.92;98345.06;4484524;32;20084;-68
2022/07/30 02:32:30;;;;;;;6.37;5.22;;;;;;;21.29;76.11;98344.50;4484592;32;20244;-69
2022/07/30 02:35:04;;;;;;;5.78;4.90;;;;;;;21.22;76.43;98325.88;4484452;32;20504;-69
2022/07/30 02:37:32;;;;;;;8.05;5.40;;;;;;;21.27;76.43;98339.37;4484460;31;20092;-68
2022/07/30 02:40:13;;;;;;;8.65;5.57;;;;;;;21.29;76.36;98336.50;4484597;32;20111;-69
2022/07/30 02:42:42;;;;;;;8.30;5.55;;;;;;;21.21;76.79;98334.91;4485453;32;20386;-69
2022/07/30 02:45:11;;;;;;;5.62;4.55;;;;;;;21.16;77.06;98341.91;4484537;32;20606;-69
2022/07/30 02:47:41;;;;;;;9.32;5.18;;;;;;;21.15;77.17;98342.94;4484226;32;20551;-68
2022/07/30 02:50:08;;;;;;;7.62;5.62;;;;;;;21.04;77.75;98345.25;4484087;32;20464;-69
2022/07/30 02:52:38;;;;;;;7.05;5.05;;;;;;;21.11;77.47;98337.25;4484034;32;20130;-68
2022/07/30 02:55:08;;;;;;;6.53;5.32;;;;;;;21.02;77.91;98338.53;4483274;32;20100;-68
2022/07/30 02:57:35;;;;;;;7.22;4.85;;;;;;;20.90;78.53;98346.41;4485142;31;20438;-68
2022/07/30 03:00:10;;;;;;;6.78;5.25;;;;;;;20.90;78.58;98339.22;4485393;31;20084;-68
2022/07/30 03:02:39;;;;;;;9.55;5.37;;;;;;;20.87;78.76;98342.31;4485417;32;20120;-68
2022/07/30 03:05:10;;;;;;;7.03;5.50;;;;;;;20.82;79.08;98344.00;4485363;31;20096;-68
2022/07/30 03:07:38;;;;;;;6.93;5.55;;;;;;;20.85;78.92;98348.91;4484121;32;20454;-68
2022/07/30 03:10:06;;;;;;;9.93;5.30;;;;;;;20.83;79.03;98335.78;4485339;31;20124;-68
2022/07/30 03:12:36;;;;;;;10.80;5.55;;;;;;;20.81;79.19;98337.03;4484230;32;20092;-68
2022/07/30 03:15:03;;;;;;;6.32;5.35;;;;;;;20.82;79.14;98336.00;4484271;32;20121;-69
2022/07/30 03:17:34;;;;;;;8.05;5.20;;;;;;;20.83;79.15;98337.63;4484324;32;20115;-68
2022/07/30 03:20:03;;;;;;;9.68;5.37;;;;;;;20.81;79.26;98334.38;4484245;32;20089;-69
2022/07/30 03:22:31;;;;;;;7.65;4.90;;;;;;;20.78;79.49;98326.81;4485449;31;20536;-69
2022/07/30 03:25:00;;;;;;;7.32;5.12;;;;;;;20.81;79.37;98324.53;4483957;32;20162;-69
2022/07/30 03:27:27;;;;;;;8.68;5.37;;;;;;;20.80;79.49;98328.22;4484274;32;20164;-69
2022/07/30 03:29:55;;;;;;;6.85;5.00;;;;;;;20.82;79.44;98328.03;4485586;31;20084;-69
2022/07/30 03:32:22;;;;;;;8.77;5.32;;;;;;;20.78;79.64;98326.81;4484531;32;20100;-69
2022/07/30 03:34:53;;;;;;;6.35;4.72;;;;;;;20.82;79.60;98333.34;4485610;31;20097;-69
2022/07/30 03:37:24;;;;;;;9.38;6.03;;;;;;;20.81;79.55;98332.50;4485441;31;20487;-68
2022/07/30 03:39:52;;;;;;;5.80;5.10;;;;;;;20.86;79.37;98339.84;4484150;32;20088;-69
2022/07/30 03:42:20;;;;;;;7.57;5.20;;;;;;;20.96;78.90;98339.41;4484164;32;20473;-69
2022/07/30 03:44:48;;;;;;;5.45;4.75;;;;;;;20.97;78.83;98341.00;4483994;32;20092;-69
2022/07/30 03:47:15;;;;;;;7.65;5.03;;;;;;;20.94;78.74;98336.94;4485447;31;20096;-69
2022/07/30 03:49:44;;;;;;;8.95;5.15;;;;;;;20.94;78.74;98336.12;4485165;31;20447;-69
2022/07/30 03:52:11;;;;;;;6.00;4.70;;;;;;;20.94;78.79;98331.63;4485058;31;20085;-68
2022/07/30 03:54:39;;;;;;;6.95;4.60;;;;;;;20.99;78.39;98329.13;4483711;32;20104;-68
2022/07/30 03:57:09;;;;;;;7.93;4.90;;;;;;;21.05;78.18;98333.59;4485144;31;20536;-69
2022/07/30 03:59:41;;;;;;;7.62;5.03;;;;;;;21.03;78.21;98335.66;4471377;32;20112;-69
2022/07/30 04:02:09;;;;;;;9.40;5.30;;;;;;;21.00;78.48;98332.59;4485070;31;20164;-69
2022/07/30 04:04:43;;;;;;;9.95;4.85;;;;;;;20.98;78.56;98332.81;4485041;32;20164;-68
2022/07/30 04:07:11;;;;;;;6.97;4.80;;;;;;;21.02;78.65;98327.88;4469507;32;20088;-68
2022/07/30 04:09:38;;;;;;;6.87;4.70;;;;;;;20.94;78.82;98333.44;4469093;32;20100;-69
2022/07/30 04:12:06;;;;;;;6.40;4.60;;;;;;;20.87;79.18;98326.31;4469565;32;20123;-69
2022/07/30 04:14:52;;;;;;;6.90;4.50;;;;;;;20.91;79.06;98332.87;4469280;32;20172;-69
2022/07/30 04:17:25;;;;;;;9.98;4.87;;;;;;;20.80;79.48;98336.19;4469579;32;20085;-69
2022/07/30 04:19:56;;;;;;;5.97;4.65;;;;;;;20.92;79.00;98345.16;4468177;32;20109;-68
2022/07/30 04:22:27;;;;;;;5.80;4.87;;;;;;;20.90;79.00;98338.41;4469097;32;20497;-69
2022/07/30 04:24:55;;;;;;;5.70;4.78;;;;;;;20.85;79.47;98341.72;4468988;32;20080;-69
2022/07/30 04:27:24;;;;;;;6.30;4.78;;;;;;;20.93;78.94;98343.31;4469038;32;20454;-68
2022/07/30 04:29:52;;;;;;;10.70;4.65;;;;;;;20.88;79.20;98343.94;4467948;32;20088;-69
2022/07/30 04:32:19;;;;;;;5.32;4.30;;;;;;;20.99;78.80;98354.94;4467994;32;20544;-68
2022/07/30 04:34:49;;;;;;;5.40;4.55;;;;;;;20.95;78.80;98354.53;4469128;32;20161;-69
2022/07/30 04:37:19;;;;;;;5.35;4.28;;;;;;;21.04;78.52;98355.09;4469295;32;20092;-69
2022/07/30 04:39:53;;;;;;;5.72;4.03;;;;;;;21.05;78.40;98365.53;4469276;32;20438;-69
2022/07/30 04:42:21;;;;;;;6.12;4.35;;;;;;;21.02;78.49;98355.31;4469022;32;20142;-69
2022/07/30 04:44:48;;;;;;;9.23;4.10;;;;;;;21.02;78.63;98365.97;4469031;32;20159;-69
2022/07/30 04:47:17;;;;;;;6.90;4.40;;;;;;;21.02;78.83;98365.16;4469275;32;20175;-69
2022/07/30 04:49:46;;;;;;;4.65;4.22;;;;;;;20.94;79.21;98368.91;4469343;32;20168;-69
2022/07/30 04:52:15;;;;;;;5.85;4.57;;;;;;;20.88;79.62;98375.09;4469012;32;20100;-69
2022/07/30 04:55:04;;;;;;;8.57;4.47;;;;;;;20.94;79.36;98371.56;4467902;32;20135;-68
2022/07/30 04:57:33;;;;;;;5.78;4.00;;;;;;;21.04;79.14;98379.88;4454951;32;20515;-69
2022/07/30 05:00:00;;;;;;;6.15;4.15;;;;;;;21.09;78.78;98376.59;4469673;32;20443;-69
2022/07/30 05:02:29;;;;;;;6.30;4.50;;;;;;;21.14;78.81;98387.41;4484649;31;20155;-69
2022/07/30 05:04:57;;;;;;;5.20;4.47;;;;;;;21.21;78.42;98392.69;4484624;31;20119;-69
2022/07/30 05:07:26;;;;;;;5.35;4.30;;;;;;;21.35;77.45;98394.25;4483283;32;20114;-68
2022/07/30 05:09:53;;;;;;;9.18;4.55;;;;;;;21.44;76.70;98392.94;4482979;32;20088;-69
2022/07/30 05:12:20;;;;;;;4.85;4.35;;;;;;;21.62;75.76;98392.22;4484236;32;20100;-69
2022/07/30 05:14:48;;;;;;;8.15;4.30;;;;;;;21.78;74.97;98395.38;4484197;32;20084;-69
2022/07/30 05:17:15;;;;;;;5.90;4.12;;;;;;;21.90;74.56;98392.78;4484392;31;20105;-69
2022/07/30 05:19:43;;;;;;;5.68;4.45;;;;;;;21.92;74.35;98391.56;4485633;31;20162;-69
2022/07/30 05:22:10;;;;;;;5.85;4.62;;;;;;;22.02;73.53;98385.69;4486232;32;20156;-69
2022/07/30 05:24:37;;;;;;;6.15;4.40;;;;;;;22.12;73.36;98388.69;4486377;32;20158;-69
2022/07/30 05:27:04;;;;;;;6.30;4.43;;;;;;;22.10;73.28;98393.41;4485774;31;20136;-68
2022/07/30 05:29:31;;;;;;;6.75;4.40;;;;;;;22.04;73.66;98383.63;4486020;32;20145;-69
2022/07/30 05:32:05;;;;;;;16.23;5.12;;;;;;;21.95;73.87;98384.94;4486295;32;20164;-69
2022/07/30 05:34:33;;;;;;;7.75;4.78;;;;;;;21.95;73.93;98390.28;4486326;31;20084;-68
2022/07/30 05:37:01;;;;;;;7.22;4.07;;;;;;;21.95;74.12;98385.78;4485815;31;20100;-69
2022/07/30 05:39:29;;;;;;;6.75;4.45;;;;;;;21.99;74.11;98386.13;4486177;32;20096;-69
2022/07/30 05:41:57;;;;;;;5.85;4.03;;;;;;;22.07;73.94;98398.38;4486203;31;20560;-69
2022/07/30 05:44:24;;;;;;;6.47;4.18;;;;;;;22.04;74.10;98401.47;4485928;32;20488;-69
2022/07/30 05:46:51;;;;;;;5.43;4.07;;;;;;;22.12;74.05;98402.03;4486101;31;20597;-69
2022/07/30 05:49:19;;;;;;;6.22;4.12;;;;;;;22.08;74.32;98400.81;4486026;31;20084;-69
2022/07/30 05:51:47;;;;;;;5.37;3.97;;;;;;;21.93;74.88;98395.84;4485941;32;20185;-69
2022/07/30 05:54:16;;;;;;;6.35;4.43;;;;;;;21.84;75.37;98399.81;4485813;32;20096;-69
2022/07/30 05:56:45;;;;;;;8.20;4.22;;;;;;;21.71;76.10;98400.75;4485336;32;20152;-69
2022/07/30 05:59:12;;;;;;;5.35;3.97;;;;;;;21.66;76.43;98397.91;4486133;32;20505;-69
2022/07/30 06:01:41;;;;;;;7.68;4.53;;;;;;;21.74;76.20;98402.16;4485842;31;20123;-69
2022/07/30 06:04:09;;;;;;;4.60;4.03;;;;;;;21.89;75.87;98408.00;4485911;31;20201;-69
2022/07/30 06:06:37;;;;;;;5.85;4.10;;;;;;;22.09;74.99;98406.97;4485929;32;20153;-69
2022/07/30 06:09:04;;;;;;;4.62;3.97;;;;;;;22.26;74.04;98423.22;4485832;32;20569;-69
2022/07/30 06:11:32;;;;;;;5.90;4.22;;;;;;;22.31;73.68;98418.06;4485610;31;20122;-69
2022/07/30 06:13:59;;;;;;;5.65;4.03;;;;;;;22.32;73.39;98425.03;4485614;32;20121;-69
2022/07/30 06:16:27;;;;;;;6.57;4.18;;;;;;;22.55;72.65;98427.03;4485800;31;20175;-69
2022/07/30 06:18:54;;;;;;;5.12;4.10;;;;;;;22.68;71.65;98424.22;4485969;31;20149;-69
2022/07/30 06:21:23;;;;;;;7.37;4.50;;;;;;;22.72;71.30;98421.09;4485967;32;20105;-69
2022/07/30 06:23:51;;;;;;;9.43;4.05;;;;;;;22.93;70.43;98425.94;4485749;32;20104;-69
2022/07/30 06:26:19;;;;;;;14.40;4.57;;;;;;;23.08;70.13;98433.56;4485251;32;20156;-69
2022/07/30 06:28:47;;;;;;;6.25;4.57;;;;;;;23.40;68.41;98428.00;4485573;31;20610;-69
2022/07/30 06:31:14;;;;;;;6.32;4.75;;;;;;;23.39;68.40;98432.53;4484852;31;20109;-69
2022/07/30 06:33:42;;;;;;;7.12;4.62;;;;;;;23.70;67.75;98429.81;4485772;32;20119;-69
2022/07/30 06:36:09;;;;;;;4.93;4.30;;;;;;;23.65;67.43;98438.50;4485305;32;20153;-69
2022/07/30 06:38:41;;;;;;;4.75;4.18;;;;;;;23.58;67.21;98445.00;4485666;32;20531;-69
2022/07/30 06:41:09;;;;;;;4.85;4.10;;;;;;;23.76;67.16;98441.44;4484438;32;20143;-69
2022/07/30 06:43:37;;;;;;;7.43;4.47;;;;;;;24.24;65.30;98443.91;4485635;31;20583;-69
2022/07/30 06:46:06;;;;;;;7.68;4.32;;;;;;;24.21;64.76;98451.59;4485550;32;20091;-69
2022/07/30 06:48:36;;;;;;;7.45;4.60;;;;;;;24.18;64.75;98444.84;4485342;32;20438;-69
2022/07/30 06:51:03;;;;;;;7.22;4.07;;;;;;;24.18;64.67;98442.19;4485783;31;20124;-69
2022/07/30 06:53:31;;;;;;;4.65;4.15;;;;;;;24.14;64.86;98421.47;4485515;32;20493;-69
2022/07/30 06:56:11;;;;;;;6.22;4.47;;;;;;;24.14;65.17;98427.62;4485398;31;20520;-69
2022/07/30 06:58:39;;;;;;;5.10;4.10;;;;;;;24.36;64.45;98427.00;4485432;31;20101;-69
2022/07/30 07:01:08;;;;;;;8.77;3.97;;;;;;;24.62;63.35;98429.22;4485460;32;20143;-69
2022/07/30 07:03:38;;;;;;;6.05;4.55;;;;;;;24.59;63.51;98426.19;4485480;31;20096;-69
2022/07/30 07:06:07;;;;;;;8.25;4.37;;;;;;;24.68;63.35;98422.09;4485474;31;20088;-69
2022/07/30 07:08:36;;;;;;;5.85;4.32;;;;;;;24.84;62.47;98435.78;4485657;31;20144;-69
2022/07/30 07:11:04;;;;;;;5.78;3.90;;;;;;;24.97;62.43;98424.78;4485720;31;20438;-69
2022/07/30 07:13:31;;;;;;;5.32;4.32;;;;;;;25.25;61.06;98420.47;4485202;32;20084;-69
2022/07/30 07:15:59;;;;;;;6.47;4.60;;;;;;;25.23;61.24;98427.94;4485741;31;20139;-69
2022/07/30 07:18:28;;;;;;;8.13;4.53;;;;;;;25.18;61.57;98417.09;4484262;32;20089;-69
2022/07/30 07:20:56;;;;;;;6.85;4.22;;;;;;;25.32;61.18;98416.59;4485825;31;20495;-69
2022/07/30 07:23:23;;;;;;;5.72;4.78;;;;;;;25.46;60.67;98413.59;4485590;31;20561;-69
2022/07/30 07:25:51;;;;;;;7.95;3.92;;;;;;;25.92;59.84;98408.13;4485363;31;20157;-69
2022/07/30 07:28:18;;;;;;;7.72;4.30;;;;;;;25.96;59.32;98415.44;4485333;31;20144;-69
2022/07/30 07:30:46;;;;;;;7.70;4.80;;;;;;;25.90;59.18;98432.53;4485547;31;20590;-69
2022/07/30 07:33:14;;;;;;;5.12;4.07;;;;;;;25.84;58.79;98437.03;4485683;31;20336;-69
2022/07/30 07:35:42;;;;;;;10.45;4.93;;;;;;;25.37;60.00;98444.56;4485129;31;20188;-69
2022/07/30 07:38:17;;;;;;;9.57;5.25;;;;;;;25.19;62.71;98445.56;4485268;31;20156;-69
2022/07/30 07:40:48;;;;;;;9.35;5.07;;;;;;;24.71;67.08;98442.22;4485234;32;20127;-69
2022/07/30 07:43:15;;;;;;;8.05;5.30;;;;;;;24.04;69.21;98444.28;4485074;31;20085;-69
2022/07/30 07:45:44;;;;;;;7.65;4.75;;;;;;;23.85;71.20;98440.88;4485163;32;20147;-69
2022/07/30 07:48:11;;;;;;;11.05;5.65;;;;;;;24.03;72.16;98456.03;4485226;31;20119;-69
2022/07/30 07:50:39;;;;;;;7.05;5.10;;;;;;;24.17;72.74;98461.94;4485104;31;20583;-69
2022/07/30 07:53:08;;;;;;;8.07;5.15;;;;;;;23.90;70.82;98469.63;4485163;31;20755;-69
2022/07/30 07:55:35;;;;;;;8.45;6.05;;;;;;;24.11;68.15;98467.44;4484983;31;20079;-69
2022/07/30 07:58:02;;;;;;;6.32;5.45;;;;;;;24.08;69.18;98466.84;4484881;31;20113;-69
2022/07/30 08:00:31;;;;;;;6.35;5.12;;;;;;;24.19;70.54;98467.88;4485224;31;20557;-69
2022/07/30 08:02:59;;;;;;;7.78;5.43;;;;;;;24.45;69.02;98474.63;4485246;31;20092;-69
2022/07/30 08:05:26;;;;;;;5.70;4.55;;;;;;;24.67;67.42;98473.22;4485189;32;20417;-69
2022/07/30 08:08:14;;;;;;;6.97;4.95;;;;;;;24.77;66.54;98479.59;4484178;32;20366;-69
2022/07/30 08:10:42;;;;;;;12.20;5.37;;;;;;;24.71;65.77;98482.41;4485086;31;20446;-69
2022/07/30 08:13:11;;;;;;;6.78;5.43;;;;;;;24.76;68.54;98482.53;4485070;31;20112;-69
2022/07/30 08:16:01;;;;;;;6.97;5.97;;;;;;;24.70;71.43;98494.19;4485219;32;20088;-69
2022/07/30 08:18:30;;;;;;;11.80;6.37;;;;;;;24.41;77.68;98483.38;4485017;31;20572;-69
2022/07/30 08:20:58;;;;;;;9.13;6.25;;;;;;;24.00;79.34;98482.44;4485186;32;20479;-69
2022/07/30 08:23:26;;;;;;;11.07;6.10;;;;;;;23.85;79.71;98478.34;4485027;32;20553;-69
2022/07/30 08:25:56;;;;;;;8.32;6.60;;;;;;;23.71;80.14;98492.94;4484351;31;20179;-69
2022/07/30 08:28:24;;;;;;;8.23;6.03;;;;;;;23.73;82.23;98488.19;4484588;32;20089;-69
2022/07/30 08:31:03;;;;;;;9.43;6.28;;;;;;;23.32;82.73;98497.81;4485115;31;20518;-69
2022/07/30 08:33:30;;;;;;;7.20;5.93;;;;;;;23.10;84.11;98500.97;4484766;31;20153;-69
2022/07/30 08:35:57;;;;;;;9.00;6.25;;;;;;;22.98;83.67;98494.72;4484741;32;20092;-69
2022/07/30 08:38:31;;;;;;;10.07;6.32;;;;;;;22.75;84.17;98504.22;4484723;32;20137;-69
2022/07/30 08:40:58;;;;;;;8.05;6.20;;;;;;;22.70;82.75;98509.44;4484698;31;20400;-69
2022/07/30 08:43:25;;;;;;;9.35;6.62;;;;;;;22.89;83.98;98502.22;4484883;31;20108;-69
2022/07/30 08:45:55;;;;;;;7.72;5.93;;;;;;;22.79;83.52;98508.09;4483462;32;20096;-69
2022/07/30 08:48:24;;;;;;;7.85;5.65;;;;;;;22.78;83.39;98501.13;4484750;31;20092;-69
2022/07/30 08:50:51;;;;;;;9.52;6.35;;;;;;;22.63;84.55;98511.34;4484424;31;20092;-69
2022/07/30 08:53:22;;;;;;;7.45;6.60;;;;;;;22.56;84.33;98507.94;4482484;32;20187;-69
2022/07/30 08:55:49;;;;;;;9.32;7.03;;;;;;;22.34;85.32;98516.38;4482977;32;20423;-69
2022/07/30 08:58:28;;;;;;;10.63;7.75;;;;;;;22.08;89.21;98518.19;4484591;31;20167;-69
2022/07/30 09:00:56;;;;;;;13.65;8.93;;;;;;;21.89;90.46;98519.16;4484258;31;20453;-69
2022/07/30 09:03:27;;;;;;;11.63;9.10;;;;;;;21.68;91.11;98512.34;4484571;31;20092;-69
2022/07/30 09:06:02;;;;;;;12.20;9.18;;;;;;;21.43;91.73;98524.56;4484359;31;20156;-69
2022/07/30 09:08:29;;;;;;;;;;;;;;;21.25;94.14;98511.94;4484614;31;20089;-69
2022/07/30 09:10:57;;;;;;;13.48;9.20;;;;;;;21.25;94.57;98513.78;4484777;31;19983;-69
2022/07/30 09:13:27;;;;;;;12.57;9.30;;;;;;;21.18;95.58;98505.00;4484543;31;20092;-69
2022/07/30 09:15:56;;;;;;;10.65;8.80;;;;;;;21.17;95.29;98500.72;4484344;31;20347;-69
2022/07/30 09:18:31;;;;;;;12.57;9.18;;;;;;;21.10;93.60;98500.75;4484426;31;20079;-69
2022/07/30 09:21:00;;;;;;;12.80;9.77;;;;;;;21.00;92.14;98495.88;4484068;32;20100;-69
2022/07/30 09:23:28;;;;;;;11.23;9.40;;;;;;;20.95;92.40;98490.34;4484029;31;20088;-69
2022/07/30 09:26:03;;;;;;;11.25;9.45;;;;;;;20.97;92.98;98493.63;4482663;32;20096;-69
2022/07/30 09:28:38;;;;;;;10.98;9.32;;;;;;;20.78;94.34;98492.66;4483965;31;20440;-69
2022/07/30 09:31:07;;;;;;;12.00;9.52;;;;;;;20.59;95.95;98504.16;4484020;31;20154;-69
2022/07/30 09:33:42;;;;;;;11.50;9.15;;;;;;;20.43;97.62;98505.44;4484159;31;20426;-69
2022/07/30 09:36:14;;;;;;;14.60;10.77;;;;;;;20.30;98.59;98517.75;4483935;31;20454;-68
2022/07/30 09:38:47;;;;;;;22.23;11.27;;;;;;;20.21;100.00;98545.53;4482887;32;20421;-69
2022/07/30 09:41:24;;;;;;;55.53;13.88;;;;;;;20.03;100.00;98557.62;4484144;31;20122;-70
2022/07/30 09:44:07;;;;;;;25.95;13.07;;;;;;;19.77;100.00;98523.88;4482915;32;20120;-70
2022/07/30 09:46:50;;;;;;;22.42;13.85;;;;;;;19.39;100.00;98500.44;4482636;32;20109;-70
2022/07/30 09:49:23;;;;;;;22.62;13.27;;;;;;;19.29;100.00;98498.19;4482877;32;20088;-71
2022/07/30 09:51:51;;;;;;;20.15;13.02;;;;;;;19.11;100.00;98500.56;4483892;31;20120;-71
2022/07/30 09:54:25;;;;;;;19.27;13.37;;;;;;;19.12;100.00;98499.53;4483926;31;20581;-71
2022/07/30 09:57:08;;;;;;;19.92;14.25;;;;;;;19.12;100.00;98479.13;4483424;32;20505;-71
2022/07/30 10:00:00;;;;;;;19.05;14.43;;;;;;;19.06;100.00;98473.78;4483712;32;20107;-71
2022/07/30 10:02:30;;;;;;;23.60;15.77;;;;;;;19.13;100.00;98477.28;4483796;31;20154;-71
2022/07/30 10:05:13;;;;;;;25.15;16.35;;;;;;;19.05;100.00;98480.12;4484575;31;20123;-71
2022/07/30 10:07:49;;;;;;;26.70;15.38;;;;;;;18.97;100.00;98471.31;4486106;31;20555;-71
2022/07/30 10:10:19;;;;;;;20.08;14.95;;;;;;;18.97;100.00;98484.59;4485942;32;20077;-71
2022/07/30 10:12:51;;;;;;;20.40;15.02;;;;;;;19.14;100.00;98500.19;4486085;32;20096;-71
2022/07/30 10:15:19;;;;;;;21.73;15.50;;;;;;;19.31;100.00;98506.75;4485923;31;20108;-71
2022/07/30 10:17:48;;;;;;;24.45;15.23;;;;;;;19.47;100.00;98502.09;4485688;32;20080;-71
2022/07/30 10:20:16;;;;;;;20.17;14.55;;;;;;;19.66;100.00;98493.34;4485800;31;20089;-71
2022/07/30 10:22:47;;;;;;;21.08;15.13;;;;;;;19.96;100.00;98494.84;4486020;31;20141;-71
2022/07/30 10:25:23;;;;;;;19.67;15.10;;;;;;;20.00;100.00;98502.19;4484577;32;20114;-71
2022/07/30 10:27:56;;;;;;;18.67;13.55;;;;;;;20.13;100.00;98500.56;4485846;31;20092;-71
2022/07/30 10:30:26;;;;;;;18.90;13.35;;;;;;;20.25;100.00;98490.13;4484475;32;20107;-72
2022/07/30 10:32:57;;;;;;;16.55;12.65;;;;;;;20.29;100.00;98500.13;4485696;32;20437;-72
2022/07/30 10:35:26;;;;;;;15.13;12.50;;;;;;;20.42;100.00;98506.44;4485465;32;20147;-72
2022/07/30 10:38:09;;;;;;;16.10;13.38;;;;;;;20.56;100.00;98511.56;4485411;31;20084;-72
2022/07/30 10:41:04;;;;;;;18.67;12.30;;;;;;;20.54;100.00;98502.94;4485472;32;20076;-72
2022/07/30 10:43:40;;;;;;;15.32;12.90;;;;;;;20.59;100.00;98506.81;4485478;32;20100;-72
2022/07/30 10:46:35;;;;;;;19.52;13.30;;;;;;;20.77;100.00;98511.53;4485491;32;20096;-73
2022/07/30 10:49:13;;;;;;;16.95;12.55;;;;;;;20.84;100.00;98509.66;4485571;32;20141;-73
2022/07/30 10:51:48;;;;;;;21.00;14.02;;;;;;;21.00;100.00;98511.03;4485375;32;20089;-73
2022/07/30 10:54:33;;;;;;;16.67;12.68;;;;;;;21.21;100.00;98510.75;4485461;32;20081;-73
2022/07/30 10:57:17;;;;;;;20.37;13.45;;;;;;;21.41;100.00;98507.97;4485168;31;20080;-72
2022/07/30 10:59:58;;;;;;;17.27;12.85;;;;;;;21.54;100.00;98504.44;4485525;31;20080;-72
2022/07/30 11:02:28;;;;;;;18.62;13.95;;;;;;;21.61;100.00;98499.06;4485494;31;20161;-73
2022/07/30 11:05:18;;;;;;;19.27;13.93;;;;;;;21.66;100.00;98485.91;4485583;31;20096;-72
2022/07/30 11:08:40;;;;;;;19.62;13.80;;;;;;;21.43;100.00;98478.44;4485354;31;20096;-72
2022/07/30 11:11:20;;;;;;;20.45;14.18;;;;;;;21.34;100.00;98469.87;4485339;31;20108;-72
2022/07/30 11:14:08;;;;;;;16.45;14.52;;;;;;;21.25;100.00;98468.50;4485330;31;20122;-72
2022/07/30 11:16:35;;;;;;;15.82;12.65;;;;;;;21.27;100.00;98459.28;4484554;31;20120;-72
2022/07/30 11:19:10;;;;;;;14.68;11.82;;;;;;;21.55;100.00;98454.63;4485118;31;20139;-72
2022/07/30 11:22:24;;;;;;;14.25;9.57;;;;;;;21.15;100.00;98454.81;4485413;31;20084;-72
2022/07/30 11:24:52;;;;;;;12.25;9.75;;;;;;;21.40;100.00;98442.38;4485315;31;20103;-71
2022/07/30 11:27:45;;;;;;;11.55;9.32;;;;;;;21.66;100.00;98443.25;4485098;31;20093;-72
2022/07/30 11:30:14;;;;;;;10.85;9.30;;;;;;;21.78;100.00;98441.50;4485201;32;20143;-72
2022/07/30 11:32:48;;;;;;;10.98;9.50;;;;;;;21.95;100.00;98439.13;4485261;32;20092;-72
2022/07/30 11:35:28;;;;;;;11.27;9.27;;;;;;;22.01;100.00;98441.94;4485320;31;20084;-72
2022/07/30 11:38:07;;;;;;;9.68;8.68;;;;;;;22.30;100.00;98443.06;4484984;31;20089;-72
2022/07/30 11:40:35;;;;;;;11.18;9.25;;;;;;;22.12;100.00;98439.37;4485082;31;20092;-72
2022/07/30 11:43:19;;;;;;;13.00;9.70;;;;;;;22.31;100.00;98439.41;4485288;31;20091;-72
2022/07/30 11:46:06;;;;;;;9.73;8.57;;;;;;;22.50;100.00;98434.91;4485424;32;20085;-72
2022/07/30 11:48:38;;;;;;;10.73;8.70;;;;;;;22.78;100.00;98433.53;4485137;31;20089;-72
2022/07/30 11:51:06;;;;;;;14.13;8.52;;;;;;;22.65;99.99;98438.00;4485203;31;20153;-72